createdAt,value
2024-03-11T00:01:25.654Z,99.951171875
2024-03-11T00:11:25.900Z,99.951171875
2024-03-11T00:21:25.718Z,99.951171875
2024-03-11T00:31:25.569Z,99.951171875
2024-03-11T00:41:25.699Z,99.951171875
2024-03-11T00:51:25.539Z,99.951171875
2024-03-11T01:01:25.547Z,99.951171875
2024-03-11T01:11:25.624Z,99.951171875
2024-03-11T01:21:25.498Z,99.951171875
2024-03-11T01:31:25.473Z,99.951171875
2024-03-11T01:41:25.568Z,99.951171875
2024-03-11T01:51:25.493Z,99.951171875
2024-03-11T02:01:25.516Z,99.951171875
2024-03-11T02:11:25.626Z,99.951171875
2024-03-11T02:21:25.402Z,99.951171875
2024-03-11T02:31:25.403Z,99.951171875
2024-03-11T02:41:25.385Z,99.951171875
2024-03-11T02:51:25.351Z,99.951171875
2024-03-11T03:01:25.351Z,99.951171875
2024-03-11T03:11:25.449Z,99.951171875
2024-03-11T03:21:25.314Z,99.951171875
2024-03-11T03:31:25.286Z,99.951171875
2024-03-11T03:41:25.245Z,99.951171875
2024-03-11T03:51:25.255Z,99.951171875
2024-03-11T04:01:25.298Z,99.951171875
2024-03-11T04:11:25.335Z,99.951171875
2024-03-11T04:21:25.286Z,99.951171875
2024-03-11T04:31:25.177Z,99.951171875
2024-03-11T04:41:25.223Z,99.951171875
2024-03-11T04:51:25.142Z,99.951171875
2024-03-11T05:01:25.238Z,99.951171875
2024-03-11T05:11:25.206Z,99.951171875
2024-03-11T05:21:25.089Z,99.951171875
2024-03-11T05:31:25.190Z,99.951171875
2024-03-11T05:41:25.163Z,99.951171875
2024-03-11T05:51:25.033Z,99.951171875
2024-03-11T06:01:25.062Z,99.951171875
2024-03-11T06:11:25.068Z,99.951171875
2024-03-11T06:21:24.995Z,99.951171875
2024-03-11T06:31:24.972Z,99.951171875
2024-03-11T06:41:25.190Z,99.951171875
2024-03-11T06:51:24.958Z,99.951171875
2024-03-11T07:01:24.951Z,99.951171875
2024-03-11T07:11:24.939Z,99.951171875
2024-03-11T07:21:25.048Z,99.951171875
2024-03-11T07:31:25.014Z,99.951171875
2024-03-11T07:41:24.837Z,99.951171875
2024-03-11T07:51:25.045Z,99.951171875
2024-03-11T08:01:24.923Z,99.951171875
2024-03-11T08:11:24.914Z,99.951171875
2024-03-11T08:21:24.815Z,99.951171875
2024-03-11T08:31:24.780Z,99.951171875
2024-03-11T08:41:24.753Z,99.951171875
2024-03-11T08:51:24.769Z,99.951171875
2024-03-11T09:01:24.830Z,99.951171875
2024-03-11T09:11:24.757Z,99.951171875
2024-03-11T09:21:24.721Z,99.951171875
2024-03-11T09:31:24.686Z,99.951171875
2024-03-11T09:41:24.705Z,99.951171875
2024-03-11T09:51:24.708Z,99.951171875
2024-03-11T10:01:24.778Z,99.951171875
2024-03-11T10:11:24.732Z,99.951171875
2024-03-11T10:21:24.684Z,99.951171875
2024-03-11T10:31:24.587Z,99.951171875
2024-03-11T10:41:24.627Z,99.951171875
2024-03-11T10:51:24.790Z,99.951171875
2024-03-11T11:01:24.657Z,99.951171875
2024-03-11T11:11:24.595Z,99.951171875
2024-03-11T11:21:24.641Z,99.951171875
2024-03-11T11:31:24.600Z,99.951171875
2024-03-11T11:41:24.530Z,99.951171875
2024-03-11T11:51:24.655Z,99.951171875
2024-03-11T12:01:24.598Z,99.951171875
2024-03-11T12:11:24.726Z,99.951171875
2024-03-11T12:21:24.470Z,99.951171875
2024-03-11T12:31:24.598Z,99.951171875
2024-03-11T12:41:24.523Z,99.951171875
2024-03-11T12:51:24.411Z,99.951171875
2024-03-11T13:01:24.390Z,99.951171875
2024-03-11T13:11:24.422Z,99.951171875
2024-03-11T13:21:24.597Z,99.951171875
2024-03-11T13:31:24.404Z,99.951171875
2024-03-11T13:41:24.327Z,99.951171875
2024-03-11T13:51:24.354Z,99.951171875
2024-03-11T14:01:24.393Z,99.951171875
2024-03-11T14:11:24.452Z,99.951171875
2024-03-11T14:21:24.299Z,99.951171875
2024-03-11T14:31:24.236Z,99.951171875
2024-03-11T14:41:24.220Z,99.951171875
2024-03-11T14:51:24.243Z,99.951171875
2024-03-11T15:01:24.287Z,99.951171875
2024-03-11T15:11:24.218Z,99.951171875
2024-03-11T15:21:24.952Z,99.951171875
2024-03-11T15:31:26.055Z,99.951171875
2024-03-11T15:41:24.164Z,99.951171875
2024-03-11T15:51:24.127Z,99.951171875
2024-03-11T16:01:27.259Z,99.951171875
2024-03-11T16:11:24.137Z,99.951171875
2024-03-11T16:21:24.112Z,99.951171875
2024-03-11T16:31:24.074Z,99.951171875
2024-03-11T16:41:24.238Z,99.951171875
2024-03-11T16:51:24.068Z,99.951171875
2024-03-11T17:01:24.087Z,99.951171875
2024-03-11T17:11:24.034Z,99.951171875
2024-03-11T17:31:23.982Z,99.951171875
2024-03-11T17:41:23.962Z,99.951171875
2024-03-11T17:51:24.036Z,99.951171875
2024-03-11T18:01:24.049Z,99.951171875
2024-03-11T18:11:23.965Z,99.951171875
2024-03-11T18:21:23.919Z,99.951171875
2024-03-11T18:31:23.989Z,99.951171875
2024-03-11T18:40:45.469Z,99.951171875
2024-03-11T18:50:45.307Z,99.951171875
2024-03-11T19:00:45.045Z,99.951171875
2024-03-11T19:10:44.950Z,99.951171875
2024-03-11T19:20:44.941Z,99.951171875
2024-03-11T19:30:44.986Z,99.951171875
2024-03-11T19:40:44.901Z,99.951171875
2024-03-11T19:50:44.898Z,99.951171875
2024-03-11T20:00:44.892Z,99.951171875
2024-03-11T20:10:44.834Z,16.50390625
2024-03-11T20:20:47.791Z,16.10107421875
2024-03-11T20:30:44.671Z,16.19873046875
2024-03-11T20:40:44.585Z,16.19873046875
2024-03-11T20:50:44.505Z,16.50390625
2024-03-11T21:00:44.560Z,16.69921875
2024-03-11T21:10:44.381Z,16.796875
2024-03-11T21:20:44.412Z,17.10205078125
2024-03-11T21:30:44.239Z,17.39501953125
2024-03-11T21:40:44.142Z,17.29736328125
2024-03-11T21:50:44.063Z,17.39501953125
2024-03-11T22:00:44.029Z,17.7001953125
2024-03-11T22:10:43.908Z,18.39599609375
2024-03-11T22:20:43.963Z,18.994140625
2024-03-11T22:30:43.827Z,19.20166015625
2024-03-11T22:40:43.708Z,20.10498046875
2024-03-11T22:50:43.616Z,20.8984375
2024-03-11T23:00:43.565Z,21.49658203125
2024-03-11T23:10:43.513Z,21.30126953125
2024-03-11T23:20:43.514Z,20.80078125
2024-03-11T23:30:43.366Z,21.20361328125
2024-03-11T23:40:43.247Z,22.39990234375
2024-03-11T23:50:43.287Z,20.99609375
